createdAt,value
2023-05-10T00:02:11.999Z,16.00
2023-05-10T00:04:40.334Z,15.90
2023-05-10T00:07:08.696Z,15.90
2023-05-10T00:09:36.979Z,15.90
2023-05-10T00:12:05.543Z,15.90
2023-05-10T00:14:34.433Z,15.90
2023-05-10T00:17:02.820Z,15.90
2023-05-10T00:19:32.641Z,15.90
2023-05-10T00:22:00.958Z,15.90
2023-05-10T00:24:29.280Z,15.90
2023-05-10T00:26:57.745Z,15.80
2023-05-10T00:29:26.218Z,15.90
2023-05-10T00:31:55.359Z,15.90
2023-05-10T00:34:23.851Z,15.90
2023-05-10T00:36:53.864Z,15.90
2023-05-10T00:39:22.224Z,16.00
2023-05-10T00:41:51.498Z,15.90
2023-05-10T00:44:20.508Z,15.80
2023-05-10T00:46:49.872Z,15.80
2023-05-10T00:49:18.862Z,15.90
2023-05-10T00:51:47.641Z,15.90
2023-05-10T00:54:18.035Z,15.80
2023-05-10T00:56:49.774Z,15.90
2023-05-10T00:59:18.898Z,15.80
2023-05-10T01:01:47.567Z,15.80
2023-05-10T01:04:17.014Z,15.80
2023-05-10T01:06:45.467Z,15.70
2023-05-10T01:09:13.916Z,15.70
2023-05-10T01:11:43.831Z,15.70
2023-05-10T01:14:12.550Z,15.60
2023-05-10T01:16:44.313Z,15.70
2023-05-10T01:19:19.104Z,15.70
2023-05-10T01:21:55.202Z,15.70
2023-05-10T01:24:53.570Z,15.70
2023-05-10T01:27:53.579Z,15.70
2023-05-10T01:30:51.831Z,15.70
2023-05-10T01:33:26.203Z,15.70
2023-05-10T01:36:01.559Z,15.70
2023-05-10T01:38:35.096Z,15.70
2023-05-10T01:41:14.154Z,15.70
2023-05-10T01:43:53.362Z,15.70
2023-05-10T01:46:29.738Z,15.70
2023-05-10T01:49:02.656Z,15.70
2023-05-10T01:51:38.604Z,15.70
2023-05-10T01:54:09.229Z,15.70
2023-05-10T01:56:39.874Z,15.60
2023-05-10T01:59:14.437Z,15.60
2023-05-10T02:01:45.191Z,15.60
2023-05-10T02:04:19.172Z,15.50
2023-05-10T02:06:49.957Z,15.60
2023-05-10T02:09:19.917Z,15.50
2023-05-10T02:11:51.167Z,15.50
2023-05-10T02:14:21.337Z,15.50
2023-05-10T02:16:52.888Z,15.50
2023-05-10T02:19:23.950Z,15.50
2023-05-10T02:21:53.694Z,15.50
2023-05-10T02:24:23.655Z,15.60
2023-05-10T02:26:53.349Z,15.50
2023-05-10T02:29:24.302Z,15.60
2023-05-10T02:31:54.894Z,15.50
2023-05-10T02:34:27.394Z,15.50
2023-05-10T02:36:57.168Z,15.50
2023-05-10T02:39:26.887Z,15.50
2023-05-10T02:41:56.932Z,15.50
2023-05-10T02:44:25.928Z,15.50
2023-05-10T02:46:57.047Z,15.40
2023-05-10T02:49:26.856Z,15.40
2023-05-10T02:52:02.154Z,15.40
2023-05-10T02:54:35.305Z,15.40
2023-05-10T02:57:07.010Z,15.30
2023-05-10T02:59:35.539Z,15.30
2023-05-10T03:02:04.253Z,15.20
2023-05-10T03:04:34.224Z,15.20
2023-05-10T03:07:02.764Z,15.20
2023-05-10T03:09:31.576Z,15.20
2023-05-10T03:12:12.922Z,15.30
2023-05-10T03:14:55.038Z,15.20
2023-05-10T03:17:28.479Z,15.20
2023-05-10T03:19:59.978Z,15.10
2023-05-10T03:22:33.762Z,15.10
2023-05-10T03:25:05.549Z,15.00
2023-05-10T03:27:37.506Z,14.90
2023-05-10T03:30:10.060Z,14.80
2023-05-10T03:32:38.741Z,14.80
2023-05-10T03:35:10.684Z,14.80
2023-05-10T03:37:39.603Z,14.80
2023-05-10T03:40:09.566Z,14.70
2023-05-10T03:42:40.082Z,14.70
2023-05-10T03:45:09.861Z,14.60
2023-05-10T03:47:38.254Z,14.60
2023-05-10T03:50:09.689Z,14.60
2023-05-10T03:52:40.058Z,14.70
2023-05-10T03:55:09.047Z,14.70
2023-05-10T03:57:37.496Z,14.70
2023-05-10T04:00:06.646Z,14.60
2023-05-10T04:02:43.196Z,14.50
2023-05-10T04:05:18.879Z,14.40
2023-05-10T04:07:48.167Z,14.40
2023-05-10T04:10:18.814Z,14.40
2023-05-10T04:12:47.450Z,14.40
2023-05-10T04:15:15.915Z,14.40
2023-05-10T04:17:44.258Z,14.40
2023-05-10T04:20:13.656Z,14.40
2023-05-10T04:22:43.557Z,14.40
2023-05-10T04:25:11.936Z,14.40
2023-05-10T04:27:40.269Z,14.30
2023-05-10T04:30:09.928Z,14.30
2023-05-10T04:32:38.398Z,14.30
2023-05-10T04:35:07.418Z,14.30
2023-05-10T04:37:35.756Z,14.20
2023-05-10T04:40:06.367Z,14.10
2023-05-10T04:42:34.883Z,14.10
2023-05-10T04:45:03.227Z,14.10
2023-05-10T04:47:31.598Z,14.10
2023-05-10T04:50:00.144Z,14.20
2023-05-10T04:52:28.449Z,14.10
2023-05-10T04:54:56.974Z,14.00
2023-05-10T04:57:26.724Z,14.10
2023-05-10T04:59:55.002Z,14.10
2023-05-10T05:02:24.744Z,14.00
2023-05-10T05:04:53.064Z,14.00
2023-05-10T05:07:21.435Z,14.00
2023-05-10T05:09:49.709Z,14.10
2023-05-10T05:12:17.964Z,14.10
2023-05-10T05:14:47.610Z,14.00
2023-05-10T05:17:15.979Z,14.10
2023-05-10T05:19:44.234Z,14.00
2023-05-10T05:22:12.759Z,14.00
2023-05-10T05:24:41.105Z,14.00
2023-05-10T05:27:09.404Z,14.00
2023-05-10T05:29:37.767Z,14.00
2023-05-10T05:32:09.518Z,14.00
2023-05-10T05:34:37.921Z,14.10
2023-05-10T05:37:06.264Z,14.00
2023-05-10T05:39:34.560Z,14.10
2023-05-10T05:42:02.896Z,14.00
2023-05-10T05:44:31.223Z,14.00
2023-05-10T05:46:59.587Z,14.00
2023-05-10T05:49:29.824Z,14.10
2023-05-10T05:52:01.147Z,14.10
2023-05-10T05:54:30.070Z,14.00
2023-05-10T05:57:00.451Z,14.00
2023-05-10T05:59:29.805Z,14.00
2023-05-10T06:01:58.207Z,14.00
2023-05-10T06:04:28.070Z,14.00
2023-05-10T06:06:56.593Z,14.00
2023-05-10T06:09:25.864Z,14.10
2023-05-10T06:11:54.558Z,14.10
2023-05-10T06:14:23.078Z,14.10
2023-05-10T06:16:53.853Z,14.10
2023-05-10T06:19:24.846Z,14.10
2023-05-10T06:21:54.953Z,14.10
2023-05-10T06:24:23.315Z,14.10
2023-05-10T06:26:51.578Z,14.20
2023-05-10T06:29:19.930Z,14.10
2023-05-10T06:31:48.759Z,14.10
2023-05-10T06:34:17.100Z,14.10
2023-05-10T06:36:45.642Z,14.20
2023-05-10T06:39:15.336Z,14.30
2023-05-10T06:41:44.010Z,14.20
2023-05-10T06:44:12.402Z,14.10
2023-05-10T06:46:40.695Z,14.10
2023-05-10T06:49:09.058Z,14.30
2023-05-10T06:51:37.306Z,14.30
2023-05-10T06:54:05.601Z,14.30
2023-05-10T06:56:35.291Z,14.30
2023-05-10T06:59:04.026Z,14.20
2023-05-10T07:01:32.450Z,14.20
2023-05-10T07:04:00.812Z,14.10
2023-05-10T07:06:33.723Z,14.20
2023-05-10T07:09:02.686Z,14.10
2023-05-10T07:11:31.041Z,14.10
2023-05-10T07:14:00.803Z,14.00
2023-05-10T07:16:29.192Z,14.10
2023-05-10T07:18:57.527Z,14.10
2023-05-10T07:21:26.282Z,14.10
2023-05-10T07:23:54.645Z,14.10
2023-05-10T07:26:23.030Z,14.20
2023-05-10T07:28:51.464Z,14.20
2023-05-10T07:31:21.208Z,14.20
2023-05-10T07:33:49.628Z,14.20
2023-05-10T07:36:18.031Z,14.10
2023-05-10T07:38:46.397Z,14.20
2023-05-10T07:41:15.437Z,14.10
2023-05-10T07:43:43.875Z,14.20
2023-05-10T07:46:12.892Z,14.20
2023-05-10T07:48:42.623Z,14.20
2023-05-10T07:51:11.751Z,14.10
2023-05-10T07:53:40.320Z,14.10
2023-05-10T07:56:24.008Z,14.10
2023-05-10T07:58:52.480Z,14.10
2023-05-10T08:01:21.021Z,14.00
2023-05-10T08:03:52.056Z,14.00
2023-05-10T08:06:20.905Z,14.10
2023-05-10T08:08:51.592Z,14.10
2023-05-10T08:11:20.301Z,14.00
2023-05-10T08:13:49.330Z,14.00
2023-05-10T08:16:18.063Z,13.90
2023-05-10T08:18:47.873Z,13.90
2023-05-10T08:21:17.888Z,13.90
2023-05-10T08:23:46.220Z,14.10
2023-05-10T08:26:14.580Z,14.10
2023-05-10T08:28:42.905Z,14.10
2023-05-10T08:31:11.296Z,14.10
2023-05-10T08:33:39.869Z,14.10
2023-05-10T08:36:09.417Z,14.10
2023-05-10T08:38:40.087Z,14.10
2023-05-10T08:41:08.992Z,14.10
2023-05-10T08:43:38.731Z,14.10
2023-05-10T08:46:09.870Z,14.10
2023-05-10T08:48:39.236Z,14.10
2023-05-10T08:51:09.194Z,14.10
2023-05-10T08:53:39.576Z,14.10
2023-05-10T08:56:08.903Z,14.00
2023-05-10T08:58:37.814Z,14.00
2023-05-10T09:01:06.955Z,14.00
2023-05-10T09:03:35.503Z,14.00
2023-05-10T09:06:03.896Z,14.10
2023-05-10T09:08:32.265Z,14.10
2023-05-10T09:11:04.094Z,14.20
2023-05-10T09:13:32.902Z,14.20
2023-05-10T09:16:07.132Z,14.20
2023-05-10T09:18:48.814Z,14.30
2023-05-10T09:21:17.227Z,14.40
2023-05-10T09:23:48.230Z,14.40
2023-05-10T09:26:18.523Z,14.30
2023-05-10T09:28:54.319Z,14.30
2023-05-10T09:31:22.819Z,14.40
2023-05-10T09:33:51.988Z,14.40
2023-05-10T09:36:20.398Z,14.30
2023-05-10T09:38:49.958Z,14.30
2023-05-10T09:41:21.252Z,14.30
2023-05-10T09:43:49.913Z,14.40
2023-05-10T09:46:18.737Z,14.30
2023-05-10T09:48:48.605Z,14.40
2023-05-10T09:51:23.409Z,14.40
2023-05-10T09:54:11.895Z,14.20
2023-05-10T09:56:42.126Z,14.10
2023-05-10T09:59:13.056Z,14.00
2023-05-10T10:01:41.655Z,14.00
2023-05-10T10:04:12.137Z,14.00
2023-05-10T10:06:41.232Z,14.00
2023-05-10T10:09:10.371Z,13.90
2023-05-10T10:11:42.416Z,14.00
2023-05-10T10:14:11.134Z,13.90
2023-05-10T10:16:48.453Z,13.90
2023-05-10T10:19:24.534Z,14.00
2023-05-10T10:21:53.150Z,14.00
2023-05-10T10:24:21.583Z,14.00
2023-05-10T10:26:54.823Z,14.00
2023-05-10T10:29:33.453Z,14.10
2023-05-10T10:32:14.357Z,14.20
2023-05-10T10:34:43.036Z,14.30
2023-05-10T10:37:11.328Z,14.40
2023-05-10T10:39:39.625Z,14.50
2023-05-10T10:42:09.400Z,14.50
2023-05-10T10:44:42.661Z,14.60
2023-05-10T10:47:30.876Z,14.60
2023-05-10T10:50:07.324Z,14.70
2023-05-10T10:52:36.303Z,14.60
2023-05-10T10:55:07.712Z,14.60
2023-05-10T10:57:49.750Z,14.70
2023-05-10T11:00:27.724Z,14.70
2023-05-10T11:02:59.242Z,14.70
2023-05-10T11:05:48.736Z,14.70
2023-05-10T11:08:19.811Z,14.60
2023-05-10T11:11:04.558Z,14.50
2023-05-10T11:13:35.672Z,14.50
2023-05-10T11:16:15.659Z,14.30
2023-05-10T11:18:55.267Z,14.20
2023-05-10T11:21:26.274Z,14.10
2023-05-10T11:23:57.332Z,14.10
2023-05-10T11:26:27.265Z,14.00
2023-05-10T11:28:57.494Z,14.00
2023-05-10T11:31:27.892Z,14.10
2023-05-10T11:33:57.744Z,14.10
2023-05-10T11:36:29.158Z,14.20
2023-05-10T11:38:58.778Z,14.10
2023-05-10T11:41:28.800Z,14.00
2023-05-10T11:43:59.917Z,13.90
2023-05-10T11:46:29.914Z,13.80
2023-05-10T11:49:02.649Z,13.80
2023-05-10T11:51:31.406Z,13.80
2023-05-10T11:54:00.023Z,13.90
2023-05-10T11:56:28.337Z,14.10
2023-05-10T11:58:59.224Z,14.10
2023-05-10T12:01:30.635Z,14.20
2023-05-10T12:04:01.226Z,14.20
2023-05-10T12:06:32.866Z,14.30
2023-05-10T12:09:02.257Z,14.30
2023-05-10T12:11:31.900Z,14.40
2023-05-10T12:14:01.592Z,14.40
2023-05-10T12:16:32.270Z,14.30
2023-05-10T12:19:02.242Z,14.40
2023-05-10T12:21:32.330Z,14.30
2023-05-10T12:24:03.727Z,14.20
2023-05-10T12:26:32.276Z,14.20
2023-05-10T12:29:16.676Z,14.20
2023-05-10T12:31:52.673Z,14.20
2023-05-10T12:34:34.032Z,14.20
2023-05-10T12:37:02.738Z,14.20
2023-05-10T12:39:41.198Z,14.20
2023-05-10T12:42:09.481Z,14.20
2023-05-10T12:44:39.108Z,14.20
2023-05-10T12:47:07.863Z,14.20
2023-05-10T12:49:36.386Z,14.20
2023-05-10T12:52:04.866Z,14.20
2023-05-10T12:54:33.116Z,14.20
2023-05-10T12:57:01.452Z,14.20
2023-05-10T12:59:29.682Z,14.20
2023-05-10T13:01:59.579Z,14.30
2023-05-10T13:04:28.030Z,14.30
2023-05-10T13:06:59.660Z,14.30
2023-05-10T13:09:30.361Z,14.30
2023-05-10T13:11:58.775Z,14.40
2023-05-10T13:14:27.567Z,14.40
2023-05-10T13:16:56.215Z,14.50
2023-05-10T13:19:25.923Z,14.50
2023-05-10T13:21:54.390Z,14.50
2023-05-10T13:24:23.294Z,14.50
2023-05-10T13:26:51.571Z,14.50
2023-05-10T13:29:20.288Z,14.50
2023-05-10T13:31:48.677Z,14.50
2023-05-10T13:34:16.938Z,14.50
2023-05-10T13:36:46.582Z,14.50
2023-05-10T13:39:14.857Z,14.50
2023-05-10T13:41:43.146Z,14.50
2023-05-10T13:44:11.905Z,14.60
2023-05-10T13:46:40.627Z,14.70
2023-05-10T13:49:08.947Z,14.80
2023-05-10T13:51:37.728Z,14.80
2023-05-10T13:54:07.472Z,14.80
2023-05-10T13:56:35.779Z,14.70
2023-05-10T13:59:04.212Z,14.60
2023-05-10T14:01:32.597Z,14.50
2023-05-10T14:04:01.087Z,14.40
2023-05-10T14:06:29.653Z,14.40
2023-05-10T14:08:58.095Z,14.30
2023-05-10T14:11:27.756Z,14.20
2023-05-10T14:13:56.133Z,14.10
2023-05-10T14:16:24.998Z,14.10
2023-05-10T14:18:53.445Z,14.00
2023-05-10T14:21:21.773Z,14.00
2023-05-10T14:23:50.001Z,14.00
2023-05-10T14:26:18.338Z,14.00
2023-05-10T14:28:48.596Z,14.00
2023-05-10T14:31:18.021Z,14.00
2023-05-10T14:33:46.369Z,14.00
2023-05-10T14:36:15.174Z,14.00
2023-05-10T14:38:43.415Z,14.10
2023-05-10T14:41:15.060Z,14.10
2023-05-10T14:43:43.461Z,14.10
2023-05-10T14:46:13.556Z,14.10
2023-05-10T14:48:42.081Z,14.00
2023-05-10T14:51:10.444Z,14.00
2023-05-10T14:53:39.032Z,14.00
2023-05-10T14:56:08.081Z,14.00
2023-05-10T14:58:36.390Z,14.00
2023-05-10T15:01:05.000Z,14.00
2023-05-10T15:03:35.645Z,14.00
2023-05-10T15:06:05.583Z,14.00
2023-05-10T15:08:33.876Z,14.00
2023-05-10T15:11:02.511Z,14.00
2023-05-10T15:13:30.826Z,14.10
2023-05-10T15:15:59.177Z,14.10
2023-05-10T15:18:27.567Z,14.20
2023-05-10T15:20:57.365Z,14.30
2023-05-10T15:23:25.691Z,14.40
2023-05-10T15:25:56.650Z,14.50
2023-05-10T15:28:25.221Z,14.60
2023-05-10T15:30:53.628Z,14.50
2023-05-10T15:33:22.017Z,14.50
2023-05-10T15:35:50.364Z,14.60
2023-05-10T15:38:20.196Z,14.60
2023-05-10T15:40:48.540Z,14.50
2023-05-10T15:43:17.353Z,14.50
2023-05-10T15:45:45.649Z,14.50
2023-05-10T15:48:13.968Z,14.40
2023-05-10T15:50:42.471Z,14.30
2023-05-10T15:53:10.992Z,14.30
2023-05-10T15:55:41.175Z,14.30
2023-05-10T15:58:09.874Z,14.30
2023-05-10T16:00:38.685Z,14.30
2023-05-10T16:03:07.000Z,14.30
2023-05-10T16:05:35.616Z,14.20
2023-05-10T16:08:03.999Z,14.10
2023-05-10T16:10:33.866Z,14.10
2023-05-10T16:13:03.881Z,14.10
2023-05-10T16:15:32.596Z,14.20
2023-05-10T16:18:01.113Z,14.30
2023-05-10T16:20:30.116Z,14.30
2023-05-10T16:22:58.581Z,14.20
2023-05-10T16:25:26.954Z,14.20
2023-05-10T16:27:55.270Z,14.30
2023-05-10T16:30:27.324Z,14.10
2023-05-10T16:32:56.627Z,14.00
2023-05-10T16:35:25.049Z,14.00
2023-05-10T16:37:53.478Z,13.90
2023-05-10T16:40:22.059Z,13.90
2023-05-10T16:42:50.537Z,13.90
2023-05-10T16:45:19.110Z,13.90
2023-05-10T16:47:49.051Z,13.90
2023-05-10T16:50:18.236Z,13.90
2023-05-10T16:52:47.252Z,13.80
2023-05-10T16:55:15.815Z,13.80
2023-05-10T16:57:44.347Z,13.70
2023-05-10T17:00:14.479Z,13.70
2023-05-10T17:02:43.333Z,13.80
2023-05-10T17:05:13.294Z,14.00
2023-05-10T17:07:41.648Z,14.10
2023-05-10T17:10:10.875Z,14.10
2023-05-10T17:12:39.204Z,14.10
2023-05-10T17:15:08.596Z,14.20
2023-05-10T17:17:36.979Z,14.10
2023-05-10T17:20:06.002Z,14.00
2023-05-10T17:22:35.762Z,13.90
2023-05-10T17:25:04.351Z,13.90
2023-05-10T17:27:32.766Z,13.80
2023-05-10T17:30:01.181Z,13.80
2023-05-10T17:32:29.870Z,13.80
2023-05-10T17:34:58.569Z,13.90
2023-05-10T17:37:26.862Z,13.90
2023-05-10T17:39:56.596Z,13.90
2023-05-10T17:42:24.964Z,13.90
2023-05-10T17:44:53.329Z,13.80
2023-05-10T17:47:21.695Z,13.80
2023-05-10T17:49:50.040Z,13.90
2023-05-10T17:52:18.477Z,13.90
2023-05-10T17:54:47.368Z,13.90
2023-05-10T17:57:17.315Z,13.90
2023-05-10T17:59:45.637Z,13.80
2023-05-10T18:02:14.580Z,13.80
2023-05-10T18:04:43.213Z,13.70
2023-05-10T18:07:11.581Z,13.60
2023-05-10T18:09:39.978Z,13.50
2023-05-10T18:12:08.450Z,13.60
2023-05-10T18:14:41.034Z,13.60
2023-05-10T18:17:10.213Z,13.50
2023-05-10T18:19:41.325Z,13.60
2023-05-10T18:22:10.836Z,13.50
2023-05-10T18:24:42.214Z,13.50
2023-05-10T18:27:10.688Z,13.50
2023-05-10T18:29:40.823Z,13.50
2023-05-10T18:32:09.227Z,13.50
2023-05-10T18:34:37.600Z,13.50
2023-05-10T18:37:07.610Z,13.50
2023-05-10T18:39:38.388Z,13.50
2023-05-10T18:42:07.434Z,13.50
2023-05-10T18:44:35.842Z,13.50
2023-05-10T18:47:05.631Z,13.50
2023-05-10T18:49:33.988Z,13.50
2023-05-10T18:52:02.397Z,13.50
2023-05-10T18:54:30.951Z,13.50
2023-05-10T18:56:59.292Z,13.50
2023-05-10T18:59:28.974Z,13.50
2023-05-10T19:01:57.837Z,13.50
2023-05-10T19:04:27.978Z,13.50
2023-05-10T19:06:56.902Z,13.50
2023-05-10T19:09:25.285Z,13.50
2023-05-10T19:11:54.310Z,13.50
2023-05-10T19:14:22.756Z,13.50
2023-05-10T19:16:54.171Z,13.40
2023-05-10T19:19:25.556Z,13.50
2023-05-10T19:21:56.244Z,13.40
2023-05-10T19:24:25.857Z,13.40
2023-05-10T19:26:57.236Z,13.50
2023-05-10T19:29:27.268Z,13.50
2023-05-10T19:31:57.063Z,13.40
2023-05-10T19:34:26.623Z,13.40
2023-05-10T19:36:59.091Z,13.40
2023-05-10T19:39:32.935Z,13.40
2023-05-10T19:42:02.611Z,13.30
2023-05-10T19:44:31.151Z,13.40
2023-05-10T19:47:02.069Z,13.40
2023-05-10T19:49:31.651Z,13.50
2023-05-10T19:52:01.745Z,13.50
2023-05-10T19:54:30.188Z,13.50
2023-05-10T19:56:59.840Z,13.50
2023-05-10T19:59:28.420Z,13.50
2023-05-10T20:01:56.997Z,13.40
2023-05-10T20:04:25.499Z,13.40
2023-05-10T20:06:54.049Z,13.40
2023-05-10T20:09:25.060Z,13.40
2023-05-10T20:11:55.253Z,13.40
2023-05-10T20:14:24.282Z,13.40
2023-05-10T20:16:52.800Z,13.40
2023-05-10T20:19:21.219Z,13.40
2023-05-10T20:21:49.962Z,13.50
2023-05-10T20:24:18.509Z,13.50
2023-05-10T20:26:48.347Z,13.50
2023-05-10T20:29:17.718Z,13.50
2023-05-10T20:31:46.371Z,13.40
2023-05-10T20:34:14.830Z,13.50
2023-05-10T20:36:43.395Z,13.50
2023-05-10T20:39:11.882Z,13.50
2023-05-10T20:41:40.352Z,13.50
2023-05-10T20:44:10.581Z,13.40
2023-05-10T20:46:39.916Z,13.40
2023-05-10T20:49:10.831Z,13.40
2023-05-10T20:51:39.482Z,13.50
2023-05-10T20:54:07.978Z,13.50
2023-05-10T20:56:36.802Z,13.50
2023-05-10T20:59:05.516Z,13.50
2023-05-10T21:01:35.324Z,13.50
2023-05-10T21:04:04.418Z,13.50
2023-05-10T21:06:33.247Z,13.40
2023-05-10T21:09:01.604Z,13.40
2023-05-10T21:11:30.060Z,13.40
2023-05-10T21:13:58.635Z,13.40
2023-05-10T21:16:27.012Z,13.40
2023-05-10T21:18:56.730Z,13.40
2023-05-10T21:21:25.207Z,13.40
2023-05-10T21:23:53.566Z,13.40
2023-05-10T21:26:22.101Z,13.40
2023-05-10T21:28:50.547Z,13.40
2023-05-10T21:31:19.028Z,13.40
2023-05-10T21:33:47.441Z,13.40
2023-05-10T21:36:17.153Z,13.40
2023-05-10T21:38:45.770Z,13.40
2023-05-10T21:41:14.232Z,13.40
2023-05-10T21:43:42.636Z,13.40
2023-05-10T21:46:12.957Z,13.40
2023-05-10T21:48:41.556Z,13.30
2023-05-10T21:51:10.479Z,13.40
2023-05-10T21:53:40.532Z,13.40
2023-05-10T21:56:09.054Z,13.30
2023-05-10T21:58:37.420Z,13.30
2023-05-10T22:01:06.026Z,13.30
2023-05-10T22:03:34.420Z,13.30
2023-05-10T22:06:02.789Z,13.30
2023-05-10T22:08:31.340Z,13.30
2023-05-10T22:11:01.027Z,13.20
2023-05-10T22:13:29.313Z,13.20
2023-05-10T22:15:57.653Z,13.20
2023-05-10T22:18:26.057Z,13.20
2023-05-10T22:20:54.396Z,13.20
2023-05-10T22:23:22.740Z,13.20
2023-05-10T22:25:51.008Z,13.20
2023-05-10T22:28:20.711Z,13.20
2023-05-10T22:30:49.303Z,13.20
2023-05-10T22:33:17.972Z,13.20
2023-05-10T22:35:46.281Z,13.20
2023-05-10T22:38:14.699Z,13.10
2023-05-10T22:40:43.310Z,13.10
2023-05-10T22:43:11.912Z,13.10
2023-05-10T22:45:41.752Z,13.20
2023-05-10T22:48:10.356Z,13.20
2023-05-10T22:50:38.779Z,13.20
2023-05-10T22:53:07.357Z,13.20
2023-05-10T22:55:36.684Z,13.20
2023-05-10T22:58:04.994Z,13.20
2023-05-10T23:00:33.541Z,13.20
2023-05-10T23:03:03.252Z,13.10
2023-05-10T23:05:31.642Z,13.10
2023-05-10T23:07:59.970Z,13.20
2023-05-10T23:10:28.447Z,13.20
2023-05-10T23:12:56.822Z,13.20
2023-05-10T23:15:25.471Z,13.20
2023-05-10T23:17:53.847Z,13.20
2023-05-10T23:20:23.555Z,13.20
2023-05-10T23:22:51.912Z,13.20
2023-05-10T23:25:20.299Z,13.20
2023-05-10T23:27:48.665Z,13.10
2023-05-10T23:30:17.518Z,13.20
2023-05-10T23:32:46.035Z,13.20
2023-05-10T23:35:14.399Z,13.20
2023-05-10T23:37:44.089Z,13.20
2023-05-10T23:40:13.569Z,13.20
2023-05-10T23:42:41.957Z,13.20
2023-05-10T23:45:11.153Z,13.20
2023-05-10T23:47:39.520Z,13.20
2023-05-10T23:50:08.890Z,13.10
2023-05-10T23:52:37.231Z,13.10
2023-05-10T23:55:07.793Z,13.20
2023-05-10T23:57:36.114Z,13.10
